sensor_id;sensor_type;location;lat;lon;timestamp;P1;durP1;ratioP1;P2;durP2;ratioP2
3918;SDS011;1974;48.670;8.994;2024-03-23T00:55:56;1.20;;;1.10;;
3918;SDS011;1974;48.670;8.994;2024-03-23T00:58:22;1.57;;;1.13;;
3918;SDS011;1974;48.670;8.994;2024-03-23T01:00:48;1.50;;;1.23;;
3918;SDS011;1974;48.670;8.994;2024-03-23T01:03:15;1.80;;;1.70;;
3918;SDS011;1974;48.670;8.994;2024-03-23T01:05:41;1.70;;;1.50;;
3918;SDS011;1974;48.670;8.994;2024-03-23T01:08:07;2.40;;;1.43;;
3918;SDS011;1974;48.670;8.994;2024-03-23T01:10:34;1.03;;;1.03;;
3918;SDS011;1974;48.670;8.994;2024-03-23T01:13:01;1.30;;;1.20;;
3918;SDS011;1974;48.670;8.994;2024-03-23T01:15:27;2.10;;;1.37;;
3918;SDS011;1974;48.670;8.994;2024-03-23T01:17:53;3.13;;;1.40;;
3918;SDS011;1974;48.670;8.994;2024-03-23T01:20:19;1.53;;;0.90;;
3918;SDS011;1974;48.670;8.994;2024-03-23T01:22:46;2.07;;;1.10;;
3918;SDS011;1974;48.670;8.994;2024-03-23T01:25:12;1.47;;;1.13;;
3918;SDS011;1974;48.670;8.994;2024-03-23T01:27:40;1.03;;;0.83;;
3918;SDS011;1974;48.670;8.994;2024-03-23T01:30:06;2.30;;;1.20;;
3918;SDS011;1974;48.670;8.994;2024-03-23T01:32:33;1.00;;;1.00;;
3918;SDS011;1974;48.670;8.994;2024-03-23T01:34:59;2.23;;;1.33;;
3918;SDS011;1974;48.670;8.994;2024-03-23T01:37:26;1.17;;;1.07;;
3918;SDS011;1974;48.670;8.994;2024-03-23T01:39:52;1.00;;;1.00;;
3918;SDS011;1974;48.670;8.994;2024-03-23T01:42:18;1.10;;;1.00;;
3918;SDS011;1974;48.670;8.994;2024-03-23T01:44:45;1.83;;;1.03;;
3918;SDS011;1974;48.670;8.994;2024-03-23T01:47:12;1.43;;;1.33;;
3918;SDS011;1974;48.670;8.994;2024-03-23T01:49:38;2.97;;;1.10;;
3918;SDS011;1974;48.670;8.994;2024-03-23T01:52:05;2.50;;;1.40;;
3918;SDS011;1974;48.670;8.994;2024-03-23T01:54:32;3.40;;;1.20;;
3918;SDS011;1974;48.670;8.994;2024-03-23T01:56:58;1.07;;;0.97;;
3918;SDS011;1974;48.670;8.994;2024-03-23T01:59:25;0.97;;;0.87;;
3918;SDS011;1974;48.670;8.994;2024-03-23T02:01:52;4.10;;;1.17;;
3918;SDS011;1974;48.670;8.994;2024-03-23T02:04:19;2.50;;;1.80;;
3918;SDS011;1974;48.670;8.994;2024-03-23T02:06:44;1.57;;;1.00;;
3918;SDS011;1974;48.670;8.994;2024-03-23T02:09:11;4.10;;;1.30;;
3918;SDS011;1974;48.670;8.994;2024-03-23T02:11:38;2.93;;;1.70;;
3918;SDS011;1974;48.670;8.994;2024-03-23T02:14:05;1.50;;;1.40;;
3918;SDS011;1974;48.670;8.994;2024-03-23T02:16:32;1.53;;;0.80;;
3918;SDS011;1974;48.670;8.994;2024-03-23T02:19:00;1.30;;;1.00;;
3918;SDS011;1974;48.670;8.994;2024-03-23T02:21:26;1.03;;;0.97;;
3918;SDS011;1974;48.670;8.994;2024-03-23T02:23:58;3.00;;;1.40;;
3918;SDS011;1974;48.670;8.994;2024-03-23T02:26:24;1.00;;;0.90;;
3918;SDS011;1974;48.670;8.994;2024-03-23T02:28:50;2.30;;;1.23;;
3918;SDS011;1974;48.670;8.994;2024-03-23T02:31:16;0.83;;;0.83;;
3918;SDS011;1974;48.670;8.994;2024-03-23T02:33:43;1.20;;;1.10;;
3918;SDS011;1974;48.670;8.994;2024-03-23T02:36:09;2.17;;;1.17;;
3918;SDS011;1974;48.670;8.994;2024-03-23T02:38:35;1.40;;;1.30;;
3918;SDS011;1974;48.670;8.994;2024-03-23T02:41:03;1.77;;;1.00;;
3918;SDS011;1974;48.670;8.994;2024-03-23T02:43:30;1.17;;;0.90;;
3918;SDS011;1974;48.670;8.994;2024-03-23T02:45:56;1.40;;;1.30;;
3918;SDS011;1974;48.670;8.994;2024-03-23T02:48:23;2.60;;;1.10;;
3918;SDS011;1974;48.670;8.994;2024-03-23T02:50:49;1.67;;;0.93;;
3918;SDS011;1974;48.670;8.994;2024-03-23T02:53:16;1.40;;;0.87;;
3918;SDS011;1974;48.670;8.994;2024-03-23T02:55:42;2.40;;;1.47;;
3918;SDS011;1974;48.670;8.994;2024-03-23T02:58:10;1.00;;;1.00;;
3918;SDS011;1974;48.670;8.994;2024-03-23T03:00:36;2.00;;;1.00;;
3918;SDS011;1974;48.670;8.994;2024-03-23T03:03:03;1.70;;;0.90;;
3918;SDS011;1974;48.670;8.994;2024-03-23T03:05:29;1.77;;;1.13;;
3918;SDS011;1974;48.670;8.994;2024-03-23T03:07:56;1.37;;;1.23;;
3918;SDS011;1974;48.670;8.994;2024-03-23T03:10:21;3.17;;;0.97;;
3918;SDS011;1974;48.670;8.994;2024-03-23T03:12:48;0.90;;;0.90;;
3918;SDS011;1974;48.670;8.994;2024-03-23T03:15:15;2.50;;;1.00;;
3918;SDS011;1974;48.670;8.994;2024-03-23T03:17:42;2.23;;;1.17;;
3918;SDS011;1974;48.670;8.994;2024-03-23T03:20:08;0.90;;;0.90;;
3918;SDS011;1974;48.670;8.994;2024-03-23T03:22:39;1.33;;;1.13;;
3918;SDS011;1974;48.670;8.994;2024-03-23T03:25:05;1.80;;;1.10;;
3918;SDS011;1974;48.670;8.994;2024-03-23T03:27:32;1.93;;;1.00;;
3918;SDS011;1974;48.670;8.994;2024-03-23T03:29:59;1.13;;;0.80;;
3918;SDS011;1974;48.670;8.994;2024-03-23T03:32:29;1.00;;;0.90;;
3918;SDS011;1974;48.670;8.994;2024-03-23T03:34:54;1.90;;;1.20;;
3918;SDS011;1974;48.670;8.994;2024-03-23T03:37:21;1.03;;;0.63;;
3918;SDS011;1974;48.670;8.994;2024-03-23T03:39:47;1.20;;;1.10;;
3918;SDS011;1974;48.670;8.994;2024-03-23T03:42:14;2.30;;;1.20;;
3918;SDS011;1974;48.670;8.994;2024-03-23T03:44:40;0.90;;;0.90;;
3918;SDS011;1974;48.670;8.994;2024-03-23T03:47:06;1.50;;;1.40;;
3918;SDS011;1974;48.670;8.994;2024-03-23T03:49:34;2.10;;;1.27;;
3918;SDS011;1974;48.670;8.994;2024-03-23T03:52:00;1.23;;;1.13;;
3918;SDS011;1974;48.670;8.994;2024-03-23T03:54:27;2.03;;;1.50;;
3918;SDS011;1974;48.670;8.994;2024-03-23T03:56:53;1.77;;;1.30;;
3918;SDS011;1974;48.670;8.994;2024-03-23T03:59:19;1.80;;;0.93;;
3918;SDS011;1974;48.670;8.994;2024-03-23T04:01:46;1.77;;;1.60;;
3918;SDS011;1974;48.670;8.994;2024-03-23T04:04:12;3.77;;;1.57;;
3918;SDS011;1974;48.670;8.994;2024-03-23T04:06:42;1.30;;;1.20;;
3918;SDS011;1974;48.670;8.994;2024-03-23T04:09:08;1.90;;;1.80;;
3918;SDS011;1974;48.670;8.994;2024-03-23T04:11:35;1.10;;;0.90;;
3918;SDS011;1974;48.670;8.994;2024-03-23T04:14:01;3.60;;;1.10;;
3918;SDS011;1974;48.670;8.994;2024-03-23T04:16:28;1.10;;;1.00;;
3918;SDS011;1974;48.670;8.994;2024-03-23T04:18:54;1.10;;;1.00;;
3918;SDS011;1974;48.670;8.994;2024-03-23T04:21:21;1.03;;;0.93;;
3918;SDS011;1974;48.670;8.994;2024-03-23T04:23:49;1.50;;;1.00;;
3918;SDS011;1974;48.670;8.994;2024-03-23T04:26:15;1.30;;;1.20;;
3918;SDS011;1974;48.670;8.994;2024-03-23T04:28:41;1.90;;;0.90;;
3918;SDS011;1974;48.670;8.994;2024-03-23T04:31:08;1.00;;;0.90;;
3918;SDS011;1974;48.670;8.994;2024-03-23T04:33:34;1.53;;;1.00;;
3918;SDS011;1974;48.670;8.994;2024-03-23T04:36:01;2.60;;;1.27;;
3918;SDS011;1974;48.670;8.994;2024-03-23T04:38:27;2.60;;;1.10;;
3918;SDS011;1974;48.670;8.994;2024-03-23T04:40:56;2.47;;;1.40;;
3918;SDS011;1974;48.670;8.994;2024-03-23T04:43:23;1.13;;;1.03;;
3918;SDS011;1974;48.670;8.994;2024-03-23T04:45:49;2.10;;;1.30;;
3918;SDS011;1974;48.670;8.994;2024-03-23T04:48:16;1.37;;;1.20;;
3918;SDS011;1974;48.670;8.994;2024-03-23T04:50:41;2.07;;;1.27;;
3918;SDS011;1974;48.670;8.994;2024-03-23T04:53:08;1.10;;;1.00;;
3918;SDS011;1974;48.670;8.994;2024-03-23T04:55:34;2.57;;;1.20;;
3918;SDS011;1974;48.670;8.994;2024-03-23T04:58:02;1.50;;;1.40;;
3918;SDS011;1974;48.670;8.994;2024-03-23T05:00:28;1.37;;;1.27;;
3918;SDS011;1974;48.670;8.994;2024-03-23T05:02:54;2.50;;;1.67;;
3918;SDS011;1974;48.670;8.994;2024-03-23T05:05:20;1.40;;;1.30;;
3918;SDS011;1974;48.670;8.994;2024-03-23T05:07:47;1.90;;;1.37;;
3918;SDS011;1974;48.670;8.994;2024-03-23T05:10:13;8.27;;;1.60;;
3918;SDS011;1974;48.670;8.994;2024-03-23T05:12:39;1.00;;;0.90;;
3918;SDS011;1974;48.670;8.994;2024-03-23T05:15:07;1.70;;;1.60;;
3918;SDS011;1974;48.670;8.994;2024-03-23T05:17:33;1.97;;;1.50;;
3918;SDS011;1974;48.670;8.994;2024-03-23T05:19:59;1.70;;;1.03;;
3918;SDS011;1974;48.670;8.994;2024-03-23T05:22:26;1.50;;;1.40;;
3918;SDS011;1974;48.670;8.994;2024-03-23T05:24:52;4.13;;;2.20;;
3918;SDS011;1974;48.670;8.994;2024-03-23T05:27:19;8.90;;;3.20;;
3918;SDS011;1974;48.670;8.994;2024-03-23T05:29:44;2.43;;;2.23;;
3918;SDS011;1974;48.670;8.994;2024-03-23T05:32:13;4.30;;;3.10;;
3918;SDS011;1974;48.670;8.994;2024-03-23T05:34:39;4.50;;;2.70;;
3918;SDS011;1974;48.670;8.994;2024-03-23T05:37:06;2.93;;;1.60;;
3918;SDS011;1974;48.670;8.994;2024-03-23T05:39:32;4.47;;;2.13;;
3918;SDS011;1974;48.670;8.994;2024-03-23T05:41:58;4.73;;;2.13;;
3918;SDS011;1974;48.670;8.994;2024-03-23T05:44:24;2.03;;;1.87;;
3918;SDS011;1974;48.670;8.994;2024-03-23T05:46:51;3.20;;;1.90;;
3918;SDS011;1974;48.670;8.994;2024-03-23T05:49:18;2.87;;;1.57;;
3918;SDS011;1974;48.670;8.994;2024-03-23T05:51:46;13.10;;;2.53;;
3918;SDS011;1974;48.670;8.994;2024-03-23T05:54:12;3.47;;;1.77;;
3918;SDS011;1974;48.670;8.994;2024-03-23T05:56:38;4.53;;;2.40;;
3918;SDS011;1974;48.670;8.994;2024-03-23T05:59:04;5.13;;;2.33;;
3918;SDS011;1974;48.670;8.994;2024-03-23T06:01:31;3.27;;;2.23;;
3918;SDS011;1974;48.670;8.994;2024-03-23T06:03:57;2.40;;;1.40;;
3918;SDS011;1974;48.670;8.994;2024-03-23T06:06:27;1.27;;;1.17;;
3918;SDS011;1974;48.670;8.994;2024-03-23T06:08:55;3.20;;;1.77;;
3918;SDS011;1974;48.670;8.994;2024-03-23T06:11:21;3.50;;;1.90;;
3918;SDS011;1974;48.670;8.994;2024-03-23T06:13:47;1.80;;;0.80;;
3918;SDS011;1974;48.670;8.994;2024-03-23T06:16:14;1.13;;;0.93;;
3918;SDS011;1974;48.670;8.994;2024-03-23T06:18:40;2.17;;;0.70;;
3918;SDS011;1974;48.670;8.994;2024-03-23T06:21:12;1.57;;;0.80;;
3918;SDS011;1974;48.670;8.994;2024-03-23T06:23:40;1.67;;;0.63;;
3918;SDS011;1974;48.670;8.994;2024-03-23T06:26:06;0.80;;;0.40;;
3918;SDS011;1974;48.670;8.994;2024-03-23T06:28:32;1.93;;;0.57;;
3918;SDS011;1974;48.670;8.994;2024-03-23T06:30:59;0.40;;;0.30;;
3918;SDS011;1974;48.670;8.994;2024-03-23T06:33:25;1.50;;;0.43;;
3918;SDS011;1974;48.670;8.994;2024-03-23T06:35:52;0.40;;;0.40;;
3918;SDS011;1974;48.670;8.994;2024-03-23T06:38:17;0.70;;;0.63;;
3918;SDS011;1974;48.670;8.994;2024-03-23T06:40:45;0.40;;;0.40;;
3918;SDS011;1974;48.670;8.994;2024-03-23T06:43:13;0.40;;;0.40;;
3918;SDS011;1974;48.670;8.994;2024-03-23T06:45:40;0.50;;;0.40;;
3918;SDS011;1974;48.670;8.994;2024-03-23T06:48:06;0.40;;;0.30;;
3918;SDS011;1974;48.670;8.994;2024-03-23T06:50:33;0.43;;;0.33;;
3918;SDS011;1974;48.670;8.994;2024-03-23T06:52:59;0.40;;;0.30;;
3918;SDS011;1974;48.670;8.994;2024-03-23T06:55:27;0.80;;;0.30;;
3918;SDS011;1974;48.670;8.994;2024-03-23T06:57:54;0.50;;;0.50;;
3918;SDS011;1974;48.670;8.994;2024-03-23T07:00:21;0.47;;;0.47;;
3918;SDS011;1974;48.670;8.994;2024-03-23T07:02:46;0.30;;;0.30;;
3918;SDS011;1974;48.670;8.994;2024-03-23T07:05:13;0.40;;;0.30;;
3918;SDS011;1974;48.670;8.994;2024-03-23T07:07:39;0.50;;;0.40;;
3918;SDS011;1974;48.670;8.994;2024-03-23T07:10:06;0.40;;;0.40;;
3918;SDS011;1974;48.670;8.994;2024-03-23T07:12:32;0.57;;;0.40;;
3918;SDS011;1974;48.670;8.994;2024-03-23T07:15:00;0.40;;;0.30;;
3918;SDS011;1974;48.670;8.994;2024-03-23T07:17:26;0.30;;;0.30;;
3918;SDS011;1974;48.670;8.994;2024-03-23T07:19:53;1.03;;;0.40;;
3918;SDS011;1974;48.670;8.994;2024-03-23T07:22:18;0.40;;;0.30;;
3918;SDS011;1974;48.670;8.994;2024-03-23T07:24:45;0.40;;;0.30;;
3918;SDS011;1974;48.670;8.994;2024-03-23T07:27:11;0.30;;;0.30;;
3918;SDS011;1974;48.670;8.994;2024-03-23T07:29:38;0.30;;;0.30;;
3918;SDS011;1974;48.670;8.994;2024-03-23T07:32:05;0.37;;;0.30;;
3918;SDS011;1974;48.670;8.994;2024-03-23T07:34:32;0.57;;;0.30;;
3918;SDS011;1974;48.670;8.994;2024-03-23T07:36:58;0.40;;;0.30;;
3918;SDS011;1974;48.670;8.994;2024-03-23T07:39:24;0.40;;;0.30;;
3918;SDS011;1974;48.670;8.994;2024-03-23T07:41:52;0.30;;;0.30;;
3918;SDS011;1974;48.670;8.994;2024-03-23T07:44:19;0.30;;;0.30;;
3918;SDS011;1974;48.670;8.994;2024-03-23T07:46:45;0.30;;;0.30;;
3918;SDS011;1974;48.670;8.994;2024-03-23T07:49:13;0.40;;;0.40;;
3918;SDS011;1974;48.670;8.994;2024-03-23T07:51:39;0.40;;;0.30;;
3918;SDS011;1974;48.670;8.994;2024-03-23T07:54:06;0.43;;;0.30;;
3918;SDS011;1974;48.670;8.994;2024-03-23T07:56:32;0.40;;;0.30;;
3918;SDS011;1974;48.670;8.994;2024-03-23T07:58:59;0.30;;;0.30;;
3918;SDS011;1974;48.670;8.994;2024-03-23T08:01:25;0.40;;;0.30;;
3918;SDS011;1974;48.670;8.994;2024-03-23T08:03:51;0.40;;;0.30;;
3918;SDS011;1974;48.670;8.994;2024-03-23T08:06:19;0.50;;;0.50;;
3918;SDS011;1974;48.670;8.994;2024-03-23T08:08:48;0.30;;;0.30;;
3918;SDS011;1974;48.670;8.994;2024-03-23T08:11:15;0.40;;;0.40;;
3918;SDS011;1974;48.670;8.994;2024-03-23T08:13:42;0.30;;;0.30;;
3918;SDS011;1974;48.670;8.994;2024-03-23T08:16:10;0.30;;;0.30;;
3918;SDS011;1974;48.670;8.994;2024-03-23T08:18:38;0.40;;;0.30;;
3918;SDS011;1974;48.670;8.994;2024-03-23T08:21:05;0.30;;;0.30;;
3918;SDS011;1974;48.670;8.994;2024-03-23T08:23:34;0.30;;;0.30;;
3918;SDS011;1974;48.670;8.994;2024-03-23T08:26:01;0.30;;;0.30;;
3918;SDS011;1974;48.670;8.994;2024-03-23T08:28:29;0.70;;;0.50;;
3918;SDS011;1974;48.670;8.994;2024-03-23T08:30:56;0.80;;;0.40;;
3918;SDS011;1974;48.670;8.994;2024-03-23T08:33:23;0.40;;;0.40;;
3918;SDS011;1974;48.670;8.994;2024-03-23T08:35:53;0.47;;;0.40;;
3918;SDS011;1974;48.670;8.994;2024-03-23T08:38:20;0.40;;;0.40;;
3918;SDS011;1974;48.670;8.994;2024-03-23T08:40:48;0.70;;;0.60;;
3918;SDS011;1974;48.670;8.994;2024-03-23T08:43:22;0.30;;;0.30;;
3918;SDS011;1974;48.670;8.994;2024-03-23T08:45:47;0.43;;;0.43;;
3918;SDS011;1974;48.670;8.994;2024-03-23T08:48:14;0.83;;;0.50;;
3918;SDS011;1974;48.670;8.994;2024-03-23T08:50:40;0.83;;;0.70;;
3918;SDS011;1974;48.670;8.994;2024-03-23T08:53:07;0.93;;;0.50;;
3918;SDS011;1974;48.670;8.994;2024-03-23T08:55:33;1.53;;;0.40;;
3918;SDS011;1974;48.670;8.994;2024-03-23T08:58:01;1.30;;;0.70;;
3918;SDS011;1974;48.670;8.994;2024-03-23T09:00:29;0.97;;;0.50;;
3918;SDS011;1974;48.670;8.994;2024-03-23T09:02:56;0.80;;;0.70;;
3918;SDS011;1974;48.670;8.994;2024-03-23T09:05:22;0.80;;;0.80;;
3918;SDS011;1974;48.670;8.994;2024-03-23T09:07:49;1.60;;;0.70;;
3918;SDS011;1974;48.670;8.994;2024-03-23T09:10:15;0.93;;;0.80;;
3918;SDS011;1974;48.670;8.994;2024-03-23T09:12:42;0.97;;;0.70;;
3918;SDS011;1974;48.670;8.994;2024-03-23T09:15:09;1.03;;;0.93;;
3918;SDS011;1974;48.670;8.994;2024-03-23T09:17:35;2.07;;;1.00;;
3918;SDS011;1974;48.670;8.994;2024-03-23T09:20:01;0.70;;;0.63;;
3918;SDS011;1974;48.670;8.994;2024-03-23T09:22:29;1.10;;;0.87;;
3918;SDS011;1974;48.670;8.994;2024-03-23T09:24:55;1.23;;;0.93;;
3918;SDS011;1974;48.670;8.994;2024-03-23T09:27:22;3.83;;;1.43;;
3918;SDS011;1974;48.670;8.994;2024-03-23T09:29:47;1.07;;;0.80;;
3918;SDS011;1974;48.670;8.994;2024-03-23T09:32:15;4.13;;;1.33;;
3918;SDS011;1974;48.670;8.994;2024-03-23T09:34:41;4.80;;;1.57;;
3918;SDS011;1974;48.670;8.994;2024-03-23T09:37:08;1.23;;;1.10;;
3918;SDS011;1974;48.670;8.994;2024-03-23T09:39:34;1.07;;;0.97;;
3918;SDS011;1974;48.670;8.994;2024-03-23T09:42:00;1.13;;;0.80;;
3918;SDS011;1974;48.670;8.994;2024-03-23T09:44:26;0.70;;;0.70;;
3918;SDS011;1974;48.670;8.994;2024-03-23T09:46:54;1.20;;;1.10;;
3918;SDS011;1974;48.670;8.994;2024-03-23T09:49:22;2.70;;;1.20;;
3918;SDS011;1974;48.670;8.994;2024-03-23T09:51:49;1.53;;;0.80;;
3918;SDS011;1974;48.670;8.994;2024-03-23T09:54:14;0.70;;;0.70;;
3918;SDS011;1974;48.670;8.994;2024-03-23T09:56:41;1.10;;;1.00;;
3918;SDS011;1974;48.670;8.994;2024-03-23T09:59:07;1.80;;;0.87;;
3918;SDS011;1974;48.670;8.994;2024-03-23T10:01:34;1.03;;;0.93;;
3918;SDS011;1974;48.670;8.994;2024-03-23T10:04:00;1.10;;;0.90;;
3918;SDS011;1974;48.670;8.994;2024-03-23T10:06:28;2.60;;;0.70;;
3918;SDS011;1974;48.670;8.994;2024-03-23T10:08:54;0.90;;;0.90;;
3918;SDS011;1974;48.670;8.994;2024-03-23T10:11:21;5.03;;;1.00;;
3918;SDS011;1974;48.670;8.994;2024-03-23T10:13:47;5.20;;;0.90;;
3918;SDS011;1974;48.670;8.994;2024-03-23T10:16:21;1.03;;;1.03;;
3918;SDS011;1974;48.670;8.994;2024-03-23T10:18:48;1.07;;;0.97;;
3918;SDS011;1974;48.670;8.994;2024-03-23T10:21:15;3.60;;;1.50;;
3918;SDS011;1974;48.670;8.994;2024-03-23T10:23:43;1.10;;;0.90;;
3918;SDS011;1974;48.670;8.994;2024-03-23T10:26:13;2.43;;;1.17;;
3918;SDS011;1974;48.670;8.994;2024-03-23T10:28:54;1.40;;;1.30;;
3918;SDS011;1974;48.670;8.994;2024-03-23T10:31:26;1.73;;;0.90;;
3918;SDS011;1974;48.670;8.994;2024-03-23T10:33:51;0.87;;;0.70;;
3918;SDS011;1974;48.670;8.994;2024-03-23T10:36:19;0.90;;;0.77;;
3918;SDS011;1974;48.670;8.994;2024-03-23T10:38:47;0.93;;;0.70;;
3918;SDS011;1974;48.670;8.994;2024-03-23T10:41:15;1.00;;;0.90;;
3918;SDS011;1974;48.670;8.994;2024-03-23T10:43:41;2.87;;;1.00;;
3918;SDS011;1974;48.670;8.994;2024-03-23T10:46:11;8.80;;;0.97;;
3918;SDS011;1974;48.670;8.994;2024-03-23T10:48:36;5.07;;;0.90;;
3918;SDS011;1974;48.670;8.994;2024-03-23T10:51:04;0.97;;;0.60;;
3918;SDS011;1974;48.670;8.994;2024-03-23T10:53:32;0.40;;;0.40;;
3918;SDS011;1974;48.670;8.994;2024-03-23T10:56:03;1.90;;;0.40;;
3918;SDS011;1974;48.670;8.994;2024-03-23T10:58:31;0.90;;;0.60;;
3918;SDS011;1974;48.670;8.994;2024-03-23T11:01:00;1.10;;;0.77;;
3918;SDS011;1974;48.670;8.994;2024-03-23T11:03:31;1.67;;;0.50;;
3918;SDS011;1974;48.670;8.994;2024-03-23T11:06:02;0.93;;;0.60;;
3918;SDS011;1974;48.670;8.994;2024-03-23T11:08:32;0.63;;;0.50;;
3918;SDS011;1974;48.670;8.994;2024-03-23T11:11:20;1.60;;;0.57;;
3918;SDS011;1974;48.670;8.994;2024-03-23T11:13:48;3.87;;;0.70;;
3918;SDS011;1974;48.670;8.994;2024-03-23T11:16:16;1.00;;;0.57;;
3918;SDS011;1974;48.670;8.994;2024-03-23T11:18:42;2.93;;;0.50;;
3918;SDS011;1974;48.670;8.994;2024-03-23T11:21:10;0.40;;;0.37;;
3918;SDS011;1974;48.670;8.994;2024-03-23T11:23:36;3.37;;;0.87;;
3918;SDS011;1974;48.670;8.994;2024-03-23T11:26:06;1.73;;;0.70;;
3918;SDS011;1974;48.670;8.994;2024-03-23T11:28:34;3.30;;;0.80;;
3918;SDS011;1974;48.670;8.994;2024-03-23T11:31:01;0.40;;;0.40;;
3918;SDS011;1974;48.670;8.994;2024-03-23T11:33:27;1.70;;;0.50;;
3918;SDS011;1974;48.670;8.994;2024-03-23T11:35:54;0.70;;;0.53;;
3918;SDS011;1974;48.670;8.994;2024-03-23T11:38:20;0.40;;;0.40;;
3918;SDS011;1974;48.670;8.994;2024-03-23T11:40:47;0.60;;;0.60;;
3918;SDS011;1974;48.670;8.994;2024-03-23T11:43:14;1.73;;;0.60;;
3918;SDS011;1974;48.670;8.994;2024-03-23T11:45:43;0.60;;;0.57;;
3918;SDS011;1974;48.670;8.994;2024-03-23T11:48:10;0.60;;;0.60;;
3918;SDS011;1974;48.670;8.994;2024-03-23T11:50:38;1.07;;;0.70;;
3918;SDS011;1974;48.670;8.994;2024-03-23T11:53:15;0.60;;;0.40;;
3918;SDS011;1974;48.670;8.994;2024-03-23T11:55:43;0.70;;;0.40;;
3918;SDS011;1974;48.670;8.994;2024-03-23T11:58:11;4.17;;;0.60;;
3918;SDS011;1974;48.670;8.994;2024-03-23T12:00:38;0.50;;;0.40;;
3918;SDS011;1974;48.670;8.994;2024-03-23T12:03:06;0.53;;;0.53;;
3918;SDS011;1974;48.670;8.994;2024-03-23T12:05:33;1.33;;;0.70;;
3918;SDS011;1974;48.670;8.994;2024-03-23T12:08:15;2.60;;;0.60;;
3918;SDS011;1974;48.670;8.994;2024-03-23T12:10:47;4.53;;;0.80;;
3918;SDS011;1974;48.670;8.994;2024-03-23T12:13:16;1.03;;;0.57;;
3918;SDS011;1974;48.670;8.994;2024-03-23T12:15:43;1.13;;;0.83;;
3918;SDS011;1974;48.670;8.994;2024-03-23T12:18:12;1.13;;;0.50;;
3918;SDS011;1974;48.670;8.994;2024-03-23T12:20:38;1.77;;;0.70;;
3918;SDS011;1974;48.670;8.994;2024-03-23T12:23:06;0.63;;;0.50;;
3918;SDS011;1974;48.670;8.994;2024-03-23T12:25:33;0.80;;;0.50;;
3918;SDS011;1974;48.670;8.994;2024-03-23T12:28:01;7.80;;;1.10;;
3918;SDS011;1974;48.670;8.994;2024-03-23T12:30:27;2.40;;;0.70;;
3918;SDS011;1974;48.670;8.994;2024-03-23T12:32:54;1.10;;;0.80;;
3918;SDS011;1974;48.670;8.994;2024-03-23T12:35:21;0.90;;;0.60;;
3918;SDS011;1974;48.670;8.994;2024-03-23T12:37:48;1.20;;;1.10;;
3918;SDS011;1974;48.670;8.994;2024-03-23T12:40:14;5.57;;;0.90;;
3918;SDS011;1974;48.670;8.994;2024-03-23T12:42:41;2.13;;;0.90;;
3918;SDS011;1974;48.670;8.994;2024-03-23T12:45:07;2.03;;;0.60;;
3918;SDS011;1974;48.670;8.994;2024-03-23T12:47:34;4.60;;;1.00;;
3918;SDS011;1974;48.670;8.994;2024-03-23T12:50:00;7.53;;;1.43;;
3918;SDS011;1974;48.670;8.994;2024-03-23T12:52:29;0.77;;;0.77;;
3918;SDS011;1974;48.670;8.994;2024-03-23T12:54:55;0.70;;;0.70;;
3918;SDS011;1974;48.670;8.994;2024-03-23T12:57:22;0.87;;;0.87;;
3918;SDS011;1974;48.670;8.994;2024-03-23T12:59:49;0.73;;;0.73;;
3918;SDS011;1974;48.670;8.994;2024-03-23T13:02:17;2.23;;;0.60;;
3918;SDS011;1974;48.670;8.994;2024-03-23T13:04:44;1.83;;;0.60;;
3918;SDS011;1974;48.670;8.994;2024-03-23T13:07:12;0.93;;;0.67;;
3918;SDS011;1974;48.670;8.994;2024-03-23T13:09:39;0.40;;;0.40;;
3918;SDS011;1974;48.670;8.994;2024-03-23T13:12:06;4.73;;;0.60;;
3918;SDS011;1974;48.670;8.994;2024-03-23T13:14:32;0.70;;;0.43;;
3918;SDS011;1974;48.670;8.994;2024-03-23T13:16:59;0.50;;;0.50;;
3918;SDS011;1974;48.670;8.994;2024-03-23T13:19:25;0.40;;;0.40;;
3918;SDS011;1974;48.670;8.994;2024-03-23T13:21:55;0.90;;;0.30;;
3918;SDS011;1974;48.670;8.994;2024-03-23T13:24:22;0.50;;;0.43;;
3918;SDS011;1974;48.670;8.994;2024-03-23T13:26:51;0.50;;;0.40;;
3918;SDS011;1974;48.670;8.994;2024-03-23T13:29:17;1.47;;;0.40;;
3918;SDS011;1974;48.670;8.994;2024-03-23T13:31:44;1.13;;;0.30;;
3918;SDS011;1974;48.670;8.994;2024-03-23T13:34:10;0.40;;;0.30;;
3918;SDS011;1974;48.670;8.994;2024-03-23T13:36:38;0.70;;;0.50;;
3918;SDS011;1974;48.670;8.994;2024-03-23T13:39:04;0.47;;;0.40;;
3918;SDS011;1974;48.670;8.994;2024-03-23T13:41:36;0.60;;;0.30;;
3918;SDS011;1974;48.670;8.994;2024-03-23T13:44:04;1.60;;;0.50;;
3918;SDS011;1974;48.670;8.994;2024-03-23T13:46:31;0.40;;;0.40;;
3918;SDS011;1974;48.670;8.994;2024-03-23T13:48:57;0.30;;;0.30;;
3918;SDS011;1974;48.670;8.994;2024-03-23T13:51:23;0.63;;;0.63;;
3918;SDS011;1974;48.670;8.994;2024-03-23T13:53:50;1.50;;;0.80;;
3918;SDS011;1974;48.670;8.994;2024-03-23T13:56:17;0.60;;;0.50;;
3918;SDS011;1974;48.670;8.994;2024-03-23T13:58:43;1.00;;;0.60;;
3918;SDS011;1974;48.670;8.994;2024-03-23T14:01:13;0.50;;;0.50;;
3918;SDS011;1974;48.670;8.994;2024-03-23T14:03:39;1.90;;;0.50;;
3918;SDS011;1974;48.670;8.994;2024-03-23T14:06:06;0.60;;;0.60;;
3918;SDS011;1974;48.670;8.994;2024-03-23T14:08:33;3.23;;;0.73;;
3918;SDS011;1974;48.670;8.994;2024-03-23T14:11:01;0.30;;;0.30;;
3918;SDS011;1974;48.670;8.994;2024-03-23T14:13:29;0.43;;;0.43;;
3918;SDS011;1974;48.670;8.994;2024-03-23T14:15:56;0.40;;;0.40;;
3918;SDS011;1974;48.670;8.994;2024-03-23T14:18:23;0.50;;;0.50;;
3918;SDS011;1974;48.670;8.994;2024-03-23T14:20:51;3.40;;;0.40;;
3918;SDS011;1974;48.670;8.994;2024-03-23T14:23:17;0.37;;;0.30;;
3918;SDS011;1974;48.670;8.994;2024-03-23T14:25:44;0.50;;;0.33;;
3918;SDS011;1974;48.670;8.994;2024-03-23T14:28:10;0.47;;;0.40;;
3918;SDS011;1974;48.670;8.994;2024-03-23T14:30:40;0.50;;;0.43;;
3918;SDS011;1974;48.670;8.994;2024-03-23T14:33:07;0.40;;;0.40;;
3918;SDS011;1974;48.670;8.994;2024-03-23T14:35:35;0.60;;;0.40;;
3918;SDS011;1974;48.670;8.994;2024-03-23T14:38:01;0.67;;;0.60;;
3918;SDS011;1974;48.670;8.994;2024-03-23T14:40:28;0.70;;;0.33;;
3918;SDS011;1974;48.670;8.994;2024-03-23T14:42:54;0.53;;;0.40;;
3918;SDS011;1974;48.670;8.994;2024-03-23T14:45:21;3.33;;;1.27;;
3918;SDS011;1974;48.670;8.994;2024-03-23T14:47:49;0.43;;;0.40;;
3918;SDS011;1974;48.670;8.994;2024-03-23T14:50:15;0.50;;;0.47;;
3918;SDS011;1974;48.670;8.994;2024-03-23T14:52:43;2.50;;;0.50;;
3918;SDS011;1974;48.670;8.994;2024-03-23T14:55:11;1.53;;;0.40;;
3918;SDS011;1974;48.670;8.994;2024-03-23T14:57:36;0.40;;;0.40;;
3918;SDS011;1974;48.670;8.994;2024-03-23T15:00:05;1.27;;;0.60;;
3918;SDS011;1974;48.670;8.994;2024-03-23T15:02:32;1.43;;;0.50;;
3918;SDS011;1974;48.670;8.994;2024-03-23T15:04:59;0.40;;;0.40;;
3918;SDS011;1974;48.670;8.994;2024-03-23T15:07:25;0.50;;;0.40;;
3918;SDS011;1974;48.670;8.994;2024-03-23T15:09:54;0.50;;;0.40;;
3918;SDS011;1974;48.670;8.994;2024-03-23T15:12:21;4.30;;;1.03;;
3918;SDS011;1974;48.670;8.994;2024-03-23T15:28:56;2.30;;;0.70;;
3918;SDS011;1974;48.670;8.994;2024-03-23T15:35:18;0.47;;;0.47;;
3918;SDS011;1974;48.670;8.994;2024-03-23T15:37:59;0.50;;;0.37;;
3918;SDS011;1974;48.670;8.994;2024-03-23T15:40:31;0.30;;;0.30;;
3918;SDS011;1974;48.670;8.994;2024-03-23T15:50:19;0.43;;;0.43;;
3918;SDS011;1974;48.670;8.994;2024-03-23T16:07:27;0.40;;;0.30;;
3918;SDS011;1974;48.670;8.994;2024-03-23T16:09:54;0.50;;;0.50;;
3918;SDS011;1974;48.670;8.994;2024-03-23T16:12:20;0.40;;;0.40;;
3918;SDS011;1974;48.670;8.994;2024-03-23T16:14:47;3.43;;;0.40;;
3918;SDS011;1974;48.670;8.994;2024-03-23T16:17:13;1.33;;;0.50;;
3918;SDS011;1974;48.670;8.994;2024-03-23T16:19:41;0.40;;;0.30;;
3918;SDS011;1974;48.670;8.994;2024-03-23T16:22:07;0.83;;;0.40;;
3918;SDS011;1974;48.670;8.994;2024-03-23T16:24:36;0.40;;;0.37;;
3918;SDS011;1974;48.670;8.994;2024-03-23T16:37:55;0.30;;;0.30;;
3918;SDS011;1974;48.670;8.994;2024-03-23T17:09:37;0.60;;;0.60;;
3918;SDS011;1974;48.670;8.994;2024-03-23T17:12:13;1.07;;;0.30;;
3918;SDS011;1974;48.670;8.994;2024-03-23T17:15:41;0.30;;;0.23;;
3918;SDS011;1974;48.670;8.994;2024-03-23T17:18:26;0.60;;;0.43;;
3918;SDS011;1974;48.670;8.994;2024-03-23T17:21:18;3.03;;;0.57;;
3918;SDS011;1974;48.670;8.994;2024-03-23T17:34:10;4.80;;;3.50;;
3918;SDS011;1974;48.670;8.994;2024-03-23T17:36:38;2.00;;;1.10;;
3918;SDS011;1974;48.670;8.994;2024-03-23T17:39:04;15.27;;;4.87;;
3918;SDS011;1974;48.670;8.994;2024-03-23T17:41:34;4.20;;;0.90;;